Time;durP1;ratioP1;P1;durP2;ratioP2;P2;SDS_P1;SDS_P2;PMS_P1;PMS_P2;Temp;Humidity;BMP_temperature;BMP_pressure;BME280_temperature;BME280_humidity;BME280_pressure;Samples;Min_cycle;Max_cycle;Signal;HPM_P1;HPM_P2
2022/01/16 00:04:11;;;;;;;71.68;41.60;;;;;;;;;;6154276;23;20453;-88
2022/01/16 00:06:37;;;;;;;73.65;41.20;;;;;;;;;;6154062;23;20427;-88
2022/01/16 00:09:03;;;;;;;71.63;41.03;;;;;;;;;;6154069;23;20037;-88
2022/01/16 00:11:28;;;;;;;71.78;42.47;;;;;;;;;;6151712;23;20008;-88
2022/01/16 00:13:54;;;;;;;69.60;38.92;;;;;;;;;;6152890;23;20036;-88
2022/01/16 00:16:19;;;;;;;59.78;33.28;;;;;;;;;;6126396;23;20006;-88
2022/01/16 00:18:52;;;;;;;64.32;34.17;;;;;;;;;;6153003;23;20367;-88
2022/01/16 00:21:30;;;;;;;53.92;32.08;;;;;;;;;;6127548;23;20334;-88
2022/01/16 00:23:55;;;;;;;50.75;28.63;;;;;;;;;;6127493;23;20013;-88
2022/01/16 00:26:21;;;;;;;46.87;28.00;;;;;;;;;;6152471;23;20057;-88
2022/01/16 00:28:47;;;;;;;49.95;27.52;;;;;;;;;;6126248;23;21036;-88
2022/01/16 00:31:13;;;;;;;46.92;28.10;;;;;;;;;;6152872;23;20375;-88
2022/01/16 00:33:39;;;;;;;45.03;26.60;;;;;;;;;;6151053;23;20005;-88
2022/01/16 00:36:07;;;;;;;46.50;26.83;;;;;;;;;;6151210;23;20085;-88
2022/01/16 00:38:33;;;;;;;52.78;28.67;;;;;;;;;;6152640;23;20056;-89
2022/01/16 00:40:58;;;;;;;45.83;26.30;;;;;;;;;;6151471;23;20005;-88
2022/01/16 00:43:23;;;;;;;50.20;27.73;;;;;;;;;;6126609;23;20021;-88
2022/01/16 00:45:49;;;;;;;43.00;26.33;;;;;;;;;;6151355;23;20001;-88
2022/01/16 00:48:14;;;;;;;50.85;29.80;;;;;;;;;;6152715;23;20224;-88
2022/01/16 00:50:39;;;;;;;42.05;26.25;;;;;;;;;;6152651;23;20056;-88
2022/01/16 00:53:04;;;;;;;49.20;26.80;;;;;;;;;;6152514;23;20005;-88
2022/01/16 00:55:30;;;;;;;47.42;27.23;;;;;;;;;;6153326;23;19997;-88
2022/01/16 00:57:55;;;;;;;50.88;28.05;;;;;;;;;;6126838;23;20006;-88
2022/01/16 01:00:20;;;;;;;45.47;26.17;;;;;;;;;;6126334;23;20010;-88
2022/01/16 01:02:45;;;;;;;46.45;26.77;;;;;;;;;;6152565;23;20021;-88
2022/01/16 01:05:11;;;;;;;50.25;27.85;;;;;;;;;;6152081;23;20015;-89
2022/01/16 01:07:38;;;;;;;49.90;28.08;;;;;;;;;;6150680;23;20006;-88
2022/01/16 01:10:04;;;;;;;41.03;25.17;;;;;;;;;;6152599;23;20169;-88
2022/01/16 01:12:40;;;;;;;46.28;26.50;;;;;;;;;;6125657;23;20009;-89
2022/01/16 01:15:08;;;;;;;48.35;26.70;;;;;;;;;;6152623;23;20013;-88
2022/01/16 01:17:37;;;;;;;48.72;27.73;;;;;;;;;;6126685;23;20056;-88
2022/01/16 01:20:04;;;;;;;47.35;29.48;;;;;;;;;;6141338;23;20459;-88
2022/01/16 01:22:30;;;;;;;44.95;27.90;;;;;;;;;;6126507;23;20029;-88
2022/01/16 01:24:55;;;;;;;47.50;28.08;;;;;;;;;;6152443;23;20023;-88
2022/01/16 01:27:23;;;;;;;63.10;32.92;;;;;;;;;;6152446;23;20059;-88
2022/01/16 01:29:59;;;;;;;51.38;31.02;;;;;;;;;;6152256;23;20025;-89
2022/01/16 01:32:25;;;;;;;62.40;33.40;;;;;;;;;;6152261;23;20009;-88
2022/01/16 01:34:50;;;;;;;65.15;33.42;;;;;;;;;;6101665;23;20077;-88
2022/01/16 01:37:15;;;;;;;65.72;33.90;;;;;;;;;;6152033;23;20010;-88
2022/01/16 01:39:41;;;;;;;65.90;36.13;;;;;;;;;;6150709;23;20006;-88
2022/01/16 01:42:11;;;;;;;64.90;35.78;;;;;;;;;;6152590;23;20068;-88
2022/01/16 01:52:51;;;;;;;91.80;43.08;;;;;;;;;;6151429;23;20465;-88
2022/01/16 01:55:16;;;;;;;84.40;43.85;;;;;;;;;;6150067;23;20002;-88
2022/01/16 01:57:41;;;;;;;86.97;44.70;;;;;;;;;;6126457;23;20028;-88
2022/01/16 02:00:07;;;;;;;84.15;43.97;;;;;;;;;;6151764;23;20002;-89
2022/01/16 02:02:44;;;;;;;101.75;45.58;;;;;;;;;;6150375;23;20076;-88
2022/01/16 02:05:10;;;;;;;94.35;45.47;;;;;;;;;;6153047;23;20422;-88
2022/01/16 02:07:35;;;;;;;94.95;48.03;;;;;;;;;;6154899;23;20005;-89
2022/01/16 02:10:00;;;;;;;104.13;48.75;;;;;;;;;;6154015;23;19994;-88
2022/01/16 02:12:25;;;;;;;101.78;49.08;;;;;;;;;;6127997;23;20748;-88
2022/01/16 02:15:00;;;;;;;142.93;56.70;;;;;;;;;;6151260;23;20013;-88
2022/01/16 02:28:40;;;;;;;119.97;55.20;;;;;;;;;;6152639;23;20414;-89
2022/01/16 02:31:21;;;;;;;148.65;55.28;;;;;;;;;;6152481;23;20060;-89
2022/01/16 02:36:31;;;;;;;151.43;53.03;;;;;;;;;;6151959;23;20060;-88
2022/01/16 02:39:00;;;;;;;211.02;59.15;;;;;;;;;;6151211;23;20001;-88
2022/01/16 02:41:25;;;;;;;136.13;48.67;;;;;;;;;;6125846;23;20405;-88
2022/01/16 02:43:52;;;;;;;158.23;52.53;;;;;;;;;;6151821;23;20009;-88
2022/01/16 02:48:44;;;;;;;197.93;56.67;;;;;;;;;;6152054;23;20741;-88
2022/01/16 02:51:10;;;;;;;181.77;57.25;;;;;;;;;;6150285;23;20001;-88
2022/01/16 02:53:35;;;;;;;108.30;45.40;;;;;;;;;;6152118;23;20433;-88
2022/01/16 02:56:00;;;;;;;118.30;45.92;;;;;;;;;;6152059;23;20118;-88
2022/01/16 02:58:26;;;;;;;109.38;44.28;;;;;;;;;;6149415;23;20006;-88
2022/01/16 03:00:51;;;;;;;106.28;41.72;;;;;;;;;;6150002;23;20009;-89
2022/01/16 03:03:16;;;;;;;113.55;44.90;;;;;;;;;;6151595;23;20753;-89
2022/01/16 03:05:41;;;;;;;105.68;42.40;;;;;;;;;;6125578;23;20087;-88
2022/01/16 03:08:07;;;;;;;142.10;45.13;;;;;;;;;;6149629;23;20008;-88
2022/01/16 03:13:06;;;;;;;101.32;43.03;;;;;;;;;;6160031;23;20263;-88
2022/01/16 03:15:31;;;;;;;73.57;37.58;;;;;;;;;;6125377;23;20426;-88
2022/01/16 03:23:13;;;;;;;65.65;35.70;;;;;;;;;;6151141;23;20021;-88
2022/01/16 03:25:38;;;;;;;86.22;40.78;;;;;;;;;;6151377;23;20002;-88
2022/01/16 03:28:03;;;;;;;78.27;38.33;;;;;;;;;;6151034;23;20001;-88
2022/01/16 03:30:28;;;;;;;86.47;40.00;;;;;;;;;;6153402;23;20233;-88
2022/01/16 03:32:53;;;;;;;73.65;38.15;;;;;;;;;;6151641;23;20334;-88
2022/01/16 03:35:19;;;;;;;72.90;36.83;;;;;;;;;;6152010;23;20008;-89
2022/01/16 03:37:44;;;;;;;68.78;35.17;;;;;;;;;;6151820;23;20029;-88
2022/01/16 03:40:11;;;;;;;69.77;36.30;;;;;;;;;;6154488;23;20012;-89
2022/01/16 03:42:37;;;;;;;73.07;36.92;;;;;;;;;;6153265;23;20606;-88
2022/01/16 03:45:03;;;;;;;78.90;38.45;;;;;;;;;;6152086;23;20013;-88
2022/01/16 03:47:28;;;;;;;76.50;37.65;;;;;;;;;;6152286;23;20045;-88
2022/01/16 03:49:54;;;;;;;72.03;36.65;;;;;;;;;;6151643;23;20014;-88
2022/01/16 03:52:19;;;;;;;66.57;34.20;;;;;;;;;;6153477;23;20425;-88
2022/01/16 03:54:44;;;;;;;67.57;35.30;;;;;;;;;;6151668;23;20272;-88
2022/01/16 03:57:09;;;;;;;68.20;34.63;;;;;;;;;;6153426;23;20093;-89
2022/01/16 03:59:34;;;;;;;71.45;36.38;;;;;;;;;;6127854;23;20005;-88
2022/01/16 04:02:00;;;;;;;69.90;34.30;;;;;;;;;;6152029;23;20080;-88
2022/01/16 04:04:25;;;;;;;71.57;35.33;;;;;;;;;;6153211;23;20009;-88
2022/01/16 04:06:51;;;;;;;63.97;34.33;;;;;;;;;;6153342;23;20002;-88
2022/01/16 04:09:16;;;;;;;64.03;33.23;;;;;;;;;;6153643;23;19998;-88
2022/01/16 04:11:51;;;;;;;58.37;32.40;;;;;;;;;;6153270;23;20233;-88
2022/01/16 04:14:22;;;;;;;61.75;32.90;;;;;;;;;;6151417;23;20257;-88
2022/01/16 04:16:47;;;;;;;;;;;;;;;;;;6152544;23;20010;-88
2022/01/16 04:19:13;;;;;;;64.43;31.70;;;;;;;;;;6154152;23;19904;-89
2022/01/16 04:21:38;;;;;;;59.42;32.55;;;;;;;;;;6154654;23;20072;-88
2022/01/16 04:24:03;;;;;;;59.57;32.80;;;;;;;;;;6151499;23;20342;-88
2022/01/16 04:26:28;;;;;;;58.95;31.65;;;;;;;;;;6151462;23;20298;-88
2022/01/16 04:28:54;;;;;;;63.13;34.05;;;;;;;;;;6154157;23;20424;-89
2022/01/16 04:31:19;;;;;;;66.57;33.45;;;;;;;;;;6154710;23;20077;-88
2022/01/16 04:33:45;;;;;;;66.35;32.70;;;;;;;;;;6153483;23;19997;-88
2022/01/16 04:36:10;;;;;;;61.28;33.45;;;;;;;;;;6155334;23;20082;-88
2022/01/16 04:38:38;;;;;;;60.53;30.85;;;;;;;;;;6155481;23;19993;-88
2022/01/16 04:43:48;;;;;;;58.45;30.55;;;;;;;;;;6153868;23;20071;-88
2022/01/16 04:46:14;;;;;;;48.00;28.42;;;;;;;;;;6152366;23;20006;-88
2022/01/16 04:48:39;;;;;;;46.67;27.58;;;;;;;;;;6154518;23;20076;-88
2022/01/16 04:51:04;;;;;;;49.87;27.73;;;;;;;;;;6129791;23;20032;-89
2022/01/16 04:53:29;;;;;;;49.13;27.03;;;;;;;;;;6129785;23;20307;-88
2022/01/16 04:55:55;;;;;;;51.47;29.53;;;;;;;;;;6155566;23;20236;-89
2022/01/16 04:58:21;;;;;;;44.35;26.77;;;;;;;;;;6154245;23;20236;-88
2022/01/16 05:00:46;;;;;;;53.67;29.08;;;;;;;;;;6127252;23;20080;-88
2022/01/16 05:03:11;;;;;;;46.03;28.67;;;;;;;;;;6126500;23;20013;-88
2022/01/16 05:05:37;;;;;;;49.47;27.60;;;;;;;;;;6152602;23;20229;-88
2022/01/16 05:08:02;;;;;;;49.45;27.67;;;;;;;;;;6150978;23;20382;-88
2022/01/16 05:10:27;;;;;;;43.70;26.95;;;;;;;;;;6152541;23;20004;-88
2022/01/16 05:12:53;;;;;;;46.38;26.80;;;;;;;;;;6150637;23;20005;-88
2022/01/16 05:18:02;;;;;;;45.70;25.92;;;;;;;;;;6154145;23;20558;-88
2022/01/16 05:20:28;;;;;;;44.17;25.63;;;;;;;;;;6150803;23;20043;-88
2022/01/16 05:22:53;;;;;;;44.22;25.45;;;;;;;;;;6150273;23;20037;-88
2022/01/16 05:25:18;;;;;;;50.57;24.90;;;;;;;;;;6126488;23;19998;-88
2022/01/16 05:27:43;;;;;;;41.40;24.55;;;;;;;;;;6152213;23;20229;-88
2022/01/16 05:30:09;;;;;;;49.80;27.05;;;;;;;;;;6150440;23;19998;-89
2022/01/16 05:32:34;;;;;;;50.28;28.02;;;;;;;;;;6152199;23;19997;-88
2022/01/16 05:35:00;;;;;;;47.85;27.83;;;;;;;;;;6150859;23;20013;-88
2022/01/16 05:37:25;;;;;;;50.58;28.67;;;;;;;;;;6152501;23;20434;-88
2022/01/16 05:39:50;;;;;;;51.70;28.95;;;;;;;;;;6125831;23;20002;-89
2022/01/16 05:42:16;;;;;;;55.90;29.23;;;;;;;;;;6153253;23;20415;-88
2022/01/16 05:44:41;;;;;;;62.78;30.98;;;;;;;;;;6153289;23;20017;-88
2022/01/16 05:47:06;;;;;;;67.03;31.65;;;;;;;;;;6152770;23;20009;-88
2022/01/16 05:49:32;;;;;;;60.00;32.13;;;;;;;;;;6150428;23;20001;-88
2022/01/16 05:51:57;;;;;;;55.97;30.93;;;;;;;;;;6126394;23;20005;-88
2022/01/16 05:54:22;;;;;;;66.97;32.42;;;;;;;;;;6150934;23;20260;-88
2022/01/16 05:56:47;;;;;;;66.40;31.90;;;;;;;;;;6153095;23;20073;-88
2022/01/16 05:59:12;;;;;;;67.23;33.77;;;;;;;;;;6153140;23;20225;-88
2022/01/16 06:01:38;;;;;;;58.28;30.05;;;;;;;;;;6152519;23;20241;-88
2022/01/16 06:04:03;;;;;;;65.10;33.80;;;;;;;;;;6128204;23;20457;-88
2022/01/16 06:06:28;;;;;;;62.88;30.75;;;;;;;;;;6152164;23;19998;-88
2022/01/16 06:08:53;;;;;;;62.30;32.25;;;;;;;;;;6126716;23;20005;-88
2022/01/16 06:11:19;;;;;;;62.33;32.70;;;;;;;;;;6153183;23;20430;-88
2022/01/16 06:13:44;;;;;;;61.53;32.85;;;;;;;;;;6151821;23;20264;-88
2022/01/16 06:16:09;;;;;;;64.88;34.40;;;;;;;;;;6154103;23;20321;-88
2022/01/16 06:18:34;;;;;;;72.30;35.78;;;;;;;;;;6128130;23;20478;-88
2022/01/16 06:21:00;;;;;;;80.03;38.58;;;;;;;;;;6152287;23;20001;-89
2022/01/16 06:23:25;;;;;;;72.70;36.13;;;;;;;;;;6152664;23;20016;-88
2022/01/16 06:25:54;;;;;;;79.97;39.30;;;;;;;;;;6153904;23;20076;-89
2022/01/16 06:28:20;;;;;;;83.40;38.22;;;;;;;;;;6152871;23;20088;-88
2022/01/16 06:30:45;;;;;;;101.63;44.45;;;;;;;;;;6154372;23;20370;-88
2022/01/16 06:33:10;;;;;;;113.27;44.07;;;;;;;;;;6154029;23;20067;-88
2022/01/16 06:35:35;;;;;;;114.35;44.85;;;;;;;;;;6127961;23;20233;-88
2022/01/16 06:38:01;;;;;;;136.63;48.97;;;;;;;;;;6152633;23;20002;-88
2022/01/16 06:40:26;;;;;;;134.35;48.95;;;;;;;;;;6151916;23;20016;-88
2022/01/16 06:42:52;;;;;;;137.15;49.15;;;;;;;;;;6150227;23;20102;-88
2022/01/16 06:45:17;;;;;;;155.93;51.40;;;;;;;;;;6150096;23;20056;-88
2022/01/16 06:47:43;;;;;;;132.80;45.87;;;;;;;;;;6151636;23;20010;-88
2022/01/16 06:50:08;;;;;;;138.00;48.72;;;;;;;;;;6149727;23;20283;-88
2022/01/16 06:52:34;;;;;;;150.27;49.85;;;;;;;;;;6151742;23;20749;-88
2022/01/16 06:54:59;;;;;;;158.18;52.58;;;;;;;;;;6150880;23;20380;-88
2022/01/16 06:57:24;;;;;;;147.03;50.23;;;;;;;;;;6151510;23;20013;-88
2022/01/16 06:59:50;;;;;;;130.15;46.78;;;;;;;;;;6149553;23;20233;-88
2022/01/16 07:02:17;;;;;;;138.98;46.40;;;;;;;;;;6151701;23;20008;-88
2022/01/16 07:04:42;;;;;;;137.57;49.25;;;;;;;;;;6150305;23;20017;-88
2022/01/16 07:07:08;;;;;;;119.40;46.67;;;;;;;;;;6152161;23;20008;-88
2022/01/16 07:09:33;;;;;;;110.95;43.65;;;;;;;;;;6152243;23;20516;-88
2022/01/16 07:11:58;;;;;;;104.68;42.50;;;;;;;;;;6151860;23;20007;-88
2022/01/16 07:14:23;;;;;;;128.25;46.90;;;;;;;;;;6150977;23;20045;-89
2022/01/16 07:16:48;;;;;;;121.77;45.37;;;;;;;;;;6149433;23;20001;-88
2022/01/16 07:19:14;;;;;;;131.27;46.78;;;;;;;;;;6151755;23;20304;-88
2022/01/16 07:21:39;;;;;;;125.20;46.13;;;;;;;;;;6151100;23;20025;-88
2022/01/16 07:24:04;;;;;;;128.07;46.17;;;;;;;;;;6124931;23;20017;-88
2022/01/16 07:26:29;;;;;;;143.68;48.92;;;;;;;;;;6151274;23;20924;-89
2022/01/16 07:28:55;;;;;;;157.33;48.47;;;;;;;;;;6149870;23;20342;-89
2022/01/16 07:31:20;;;;;;;168.70;52.15;;;;;;;;;;6150884;23;20295;-88
2022/01/16 07:33:45;;;;;;;152.70;48.17;;;;;;;;;;6150607;23;20028;-88
2022/01/16 07:36:11;;;;;;;168.13;52.90;;;;;;;;;;6152407;23;20233;-88
2022/01/16 07:38:36;;;;;;;151.60;49.63;;;;;;;;;;6151040;23;20734;-89
2022/01/16 07:41:01;;;;;;;159.30;47.20;;;;;;;;;;6153180;23;19998;-88
2022/01/16 07:43:26;;;;;;;161.20;48.28;;;;;;;;;;6153376;23;20257;-88
2022/01/16 07:45:51;;;;;;;124.73;43.13;;;;;;;;;;6154274;23;20036;-89
2022/01/16 07:48:17;;;;;;;141.75;44.30;;;;;;;;;;6127537;23;20237;-88
2022/01/16 07:50:42;;;;;;;116.70;40.40;;;;;;;;;;6154705;23;20004;-88
2022/01/16 07:53:08;;;;;;;133.40;43.10;;;;;;;;;;6128471;23;20005;-89
2022/01/16 07:55:33;;;;;;;119.28;41.67;;;;;;;;;;6151418;23;20409;-88
2022/01/16 07:57:59;;;;;;;110.53;38.67;;;;;;;;;;6150541;23;20762;-88
2022/01/16 08:00:25;;;;;;;127.63;42.00;;;;;;;;;;6153349;23;20075;-88
2022/01/16 08:02:50;;;;;;;132.45;40.95;;;;;;;;;;6127553;23;20737;-88
2022/01/16 08:05:16;;;;;;;121.07;40.40;;;;;;;;;;6152868;23;20013;-88
2022/01/16 08:07:41;;;;;;;107.65;36.72;;;;;;;;;;6152455;23;20008;-89
2022/01/16 08:10:06;;;;;;;116.78;37.55;;;;;;;;;;6153564;23;20477;-88
2022/01/16 08:12:32;;;;;;;138.85;42.08;;;;;;;;;;6154430;23;20002;-89
2022/01/16 08:14:57;;;;;;;118.60;40.72;;;;;;;;;;6155657;23;20434;-89
2022/01/16 08:17:22;;;;;;;110.67;38.87;;;;;;;;;;6156296;23;19998;-88
2022/01/16 08:19:47;;;;;;;112.90;37.88;;;;;;;;;;6156280;23;20327;-89
2022/01/16 08:22:13;;;;;;;125.75;39.45;;;;;;;;;;6155802;23;20454;-89
2022/01/16 08:24:38;;;;;;;119.75;39.85;;;;;;;;;;6154744;23;20485;-88
2022/01/16 08:27:03;;;;;;;118.53;39.83;;;;;;;;;;6153424;23;20497;-89
2022/01/16 08:29:28;;;;;;;116.65;39.20;;;;;;;;;;6152720;23;20241;-88
2022/01/16 19:34:24;;;;;;;29.63;5.53;;;;;;;;;;6154949;23;20127;-88
2022/01/16 19:36:49;;;;;;;27.00;4.47;;;;;;;;;;6182288;23;20032;-88
2022/01/16 19:39:14;;;;;;;27.77;5.55;;;;;;;;;;6174629;23;20034;-88
2022/01/16 19:41:46;;;;;;;23.33;4.57;;;;;;;;;;6185105;23;20008;-88
2022/01/16 19:44:11;;;;;;;31.73;5.43;;;;;;;;;;6211871;23;20013;-88
2022/01/16 19:46:36;;;;;;;37.58;6.82;;;;;;;;;;6211752;23;19993;-88
2022/01/16 19:49:02;;;;;;;33.27;5.47;;;;;;;;;;6211562;23;20000;-88
2022/01/16 19:51:28;;;;;;;35.90;5.00;;;;;;;;;;6211649;23;20231;-88
2022/01/16 19:53:53;;;;;;;36.47;6.75;;;;;;;;;;6184577;23;20008;-88
2022/01/16 19:56:18;;;;;;;30.23;5.18;;;;;;;;;;6211721;23;20091;-88
2022/01/16 19:58:44;;;;;;;26.20;4.88;;;;;;;;;;6185617;23;20031;-88
2022/01/16 20:01:10;;;;;;;33.67;5.28;;;;;;;;;;6185326;23;20008;-88
2022/01/16 20:03:36;;;;;;;32.03;6.13;;;;;;;;;;6184946;23;20720;-88
2022/01/16 20:06:01;;;;;;;30.50;5.20;;;;;;;;;;6185540;23;20005;-88
2022/01/16 20:08:27;;;;;;;35.83;6.80;;;;;;;;;;6211772;23;19999;-89
2022/01/16 20:10:53;;;;;;;33.45;5.80;;;;;;;;;;6213902;23;20008;-89
2022/01/16 20:13:18;;;;;;;33.78;5.78;;;;;;;;;;6214297;23;19997;-89
2022/01/16 20:15:43;;;;;;;36.90;5.80;;;;;;;;;;6213869;23;20004;-89
2022/01/16 20:18:09;;;;;;;38.08;6.38;;;;;;;;;;6187035;23;20410;-88
2022/01/16 20:20:35;;;;;;;28.10;4.80;;;;;;;;;;6187162;23;20044;-89
2022/01/16 20:23:01;;;;;;;37.08;5.88;;;;;;;;;;6213944;23;20001;-89
2022/01/16 20:25:28;;;;;;;44.67;7.13;;;;;;;;;;6214062;23;20059;-88
2022/01/16 20:27:55;;;;;;;39.97;5.32;;;;;;;;;;6214616;23;20005;-89
2022/01/16 20:30:23;;;;;;;32.92;4.65;;;;;;;;;;6186705;23;20011;-88
2022/01/16 20:32:48;;;;;;;33.15;5.82;;;;;;;;;;6214066;23;20475;-89
2022/01/16 20:35:13;;;;;;;37.65;6.53;;;;;;;;;;6214005;23;20048;-89
2022/01/16 20:37:42;;;;;;;41.13;5.57;;;;;;;;;;6187833;23;20062;-89
2022/01/16 20:40:08;;;;;;;41.67;5.70;;;;;;;;;;6211861;23;20224;-89
2022/01/16 20:42:34;;;;;;;37.53;6.32;;;;;;;;;;6186710;23;20001;-89
2022/01/16 20:44:59;;;;;;;40.77;6.73;;;;;;;;;;6213611;23;20023;-89
2022/01/16 20:47:24;;;;;;;38.08;6.20;;;;;;;;;;6213848;23;20231;-89
2022/01/16 20:49:49;;;;;;;37.45;6.47;;;;;;;;;;6213563;23;20000;-89
2022/01/16 20:52:16;;;;;;;50.03;6.60;;;;;;;;;;6213998;23;20326;-89
2022/01/16 20:54:42;;;;;;;31.55;5.70;;;;;;;;;;6186992;23;20346;-89
2022/01/16 20:57:08;;;;;;;23.58;4.47;;;;;;;;;;6186921;23;20406;-89
2022/01/16 20:59:33;;;;;;;35.17;5.53;;;;;;;;;;6186538;23;20000;-89
2022/01/16 21:01:59;;;;;;;27.25;6.10;;;;;;;;;;6186924;23;20003;-88
2022/01/16 21:04:25;;;;;;;29.33;5.22;;;;;;;;;;6213509;23;20019;-88
2022/01/16 21:06:50;;;;;;;42.20;7.27;;;;;;;;;;6213837;23;19997;-89
2022/01/16 21:09:15;;;;;;;33.97;5.57;;;;;;;;;;6213845;23;20306;-90
2022/01/16 21:11:40;;;;;;;33.00;5.25;;;;;;;;;;6214156;23;19993;-89
2022/01/16 21:14:09;;;;;;;35.63;5.75;;;;;;;;;;6187388;23;20009;-89
2022/01/16 21:16:36;;;;;;;32.75;5.40;;;;;;;;;;6187538;23;20091;-89
2022/01/16 21:19:02;;;;;;;35.83;6.00;;;;;;;;;;6213378;23;20428;-89
2022/01/16 21:21:27;;;;;;;34.28;5.28;;;;;;;;;;6212960;23;20024;-89
2022/01/16 21:23:52;;;;;;;31.35;5.20;;;;;;;;;;6213422;23;20426;-89
2022/01/16 21:26:17;;;;;;;32.50;5.25;;;;;;;;;;6188355;23;20007;-89
2022/01/16 21:28:42;;;;;;;37.00;6.53;;;;;;;;;;6214635;23;20004;-90
2022/01/16 21:31:08;;;;;;;30.38;4.35;;;;;;;;;;6214281;23;20024;-90
2022/01/16 21:33:33;;;;;;;33.08;5.32;;;;;;;;;;6186504;23;20472;-90
2022/01/16 21:35:58;;;;;;;27.70;4.38;;;;;;;;;;6213397;23;20013;-90
2022/01/16 21:38:24;;;;;;;23.92;5.05;;;;;;;;;;6213565;23;20005;-90
2022/01/16 21:40:49;;;;;;;27.23;4.00;;;;;;;;;;6187443;23;20000;-91
2022/01/16 21:43:15;;;;;;;34.08;5.03;;;;;;;;;;6187775;23;20005;-91
2022/01/16 21:45:41;;;;;;;26.80;5.53;;;;;;;;;;6213199;23;20052;-92
2022/01/16 21:48:11;;;;;;;27.13;4.13;;;;;;;;;;6187634;23;20004;-92
2022/01/16 21:50:36;;;;;;;28.25;4.75;;;;;;;;;;6186849;23;20023;-92
2022/01/16 21:53:02;;;;;;;28.20;5.00;;;;;;;;;;6187056;23;20044;-92
2022/01/16 21:55:28;;;;;;;30.05;4.72;;;;;;;;;;6186823;23;20005;-91
2022/01/16 21:57:53;;;;;;;46.08;5.93;;;;;;;;;;6186926;23;20001;-91
2022/01/16 22:00:19;;;;;;;21.67;4.13;;;;;;;;;;6187386;23;20005;-92
2022/01/16 22:02:45;;;;;;;38.63;6.38;;;;;;;;;;6212957;23;20421;-91
2022/01/16 22:05:10;;;;;;;29.77;5.85;;;;;;;;;;6213290;23;20009;-91
2022/01/16 22:07:38;;;;;;;23.52;5.57;;;;;;;;;;6187276;23;20016;-91
2022/01/16 22:10:04;;;;;;;31.40;5.05;;;;;;;;;;6187323;23;20007;-92
2022/01/16 22:12:31;;;;;;;31.38;5.32;;;;;;;;;;6187514;23;20429;-92
2022/01/16 22:14:58;;;;;;;26.38;5.00;;;;;;;;;;6213466;23;20001;-91
2022/01/16 22:17:23;;;;;;;29.60;6.57;;;;;;;;;;6187326;23;20448;-91
2022/01/16 22:19:49;;;;;;;23.13;4.70;;;;;;;;;;6213226;23;20024;-91
2022/01/16 22:22:15;;;;;;;21.52;4.28;;;;;;;;;;6186514;23;20005;-91
2022/01/16 22:24:40;;;;;;;20.75;4.82;;;;;;;;;;6186172;23;20019;-91
2022/01/16 22:27:06;;;;;;;35.42;4.63;;;;;;;;;;6187133;23;20000;-91
2022/01/16 22:29:31;;;;;;;18.98;5.75;;;;;;;;;;6188026;23;20027;-91
2022/01/16 22:31:56;;;;;;;28.65;4.45;;;;;;;;;;6186454;23;20004;-91
2022/01/16 22:34:22;;;;;;;28.17;5.15;;;;;;;;;;6213210;23;20027;-92
2022/01/16 22:36:47;;;;;;;26.80;5.00;;;;;;;;;;6188558;23;19997;-92
2022/01/16 22:39:12;;;;;;;30.50;5.43;;;;;;;;;;6189332;23;20252;-92
2022/01/16 22:41:37;;;;;;;28.15;4.75;;;;;;;;;;6187274;23;20000;-92
2022/01/16 22:44:03;;;;;;;28.92;4.53;;;;;;;;;;6186296;23;20602;-92
2022/01/16 22:46:29;;;;;;;33.88;5.70;;;;;;;;;;6186530;23;20007;-93
2022/01/16 22:48:55;;;;;;;22.95;4.68;;;;;;;;;;6187524;23;20067;-92
2022/01/16 22:51:21;;;;;;;28.02;4.38;;;;;;;;;;6214284;23;20011;-92
2022/01/16 22:53:46;;;;;;;30.92;5.07;;;;;;;;;;6186694;23;19996;-92
2022/01/16 22:56:13;;;;;;;30.15;5.15;;;;;;;;;;6186700;23;20004;-92
2022/01/16 22:58:38;;;;;;;28.05;4.85;;;;;;;;;;6187429;23;20005;-92
2022/01/16 23:01:03;;;;;;;30.23;5.07;;;;;;;;;;6186738;23;20384;-92
2022/01/16 23:03:29;;;;;;;42.22;6.22;;;;;;;;;;6186546;23;20011;-92
2022/01/16 23:05:54;;;;;;;40.63;6.80;;;;;;;;;;6187034;23;20429;-92
2022/01/16 23:08:20;;;;;;;41.85;8.05;;;;;;;;;;6214314;23;19997;-92
2022/01/16 23:10:45;;;;;;;36.55;6.05;;;;;;;;;;6188929;23;19996;-93
2022/01/16 23:13:10;;;;;;;42.78;5.88;;;;;;;;;;6187413;23;19996;-92
2022/01/16 23:15:36;;;;;;;36.75;7.82;;;;;;;;;;6187593;23;20035;-92
2022/01/16 23:18:01;;;;;;;40.67;8.27;;;;;;;;;;6214069;23;20012;-92
2022/01/16 23:20:26;;;;;;;32.65;6.45;;;;;;;;;;6186712;23;20073;-92
2022/01/16 23:22:52;;;;;;;36.55;6.75;;;;;;;;;;6214110;23;19996;-92
2022/01/16 23:25:17;;;;;;;35.65;6.78;;;;;;;;;;6186701;23;20055;-93
2022/01/16 23:27:42;;;;;;;40.80;7.03;;;;;;;;;;6186693;23;19993;-92
2022/01/16 23:30:08;;;;;;;43.03;6.22;;;;;;;;;;6214020;23;20333;-92
2022/01/16 23:32:36;;;;;;;39.83;6.75;;;;;;;;;;6212732;23;20037;-92
2022/01/16 23:35:02;;;;;;;41.15;6.85;;;;;;;;;;6213772;23;20013;-92
2022/01/16 23:37:27;;;;;;;40.08;6.75;;;;;;;;;;6187618;23;20008;-93
2022/01/16 23:39:52;;;;;;;34.42;6.55;;;;;;;;;;6188368;23;20031;-93
2022/01/16 23:42:18;;;;;;;33.67;4.63;;;;;;;;;;6190084;23;20024;-93
2022/01/16 23:44:44;;;;;;;37.30;5.20;;;;;;;;;;6192106;23;20019;-93
2022/01/16 23:47:09;;;;;;;37.42;7.00;;;;;;;;;;6190756;23;20195;-93
2022/01/16 23:49:35;;;;;;;27.70;6.05;;;;;;;;;;6190549;23;20010;-92
2022/01/16 23:52:00;;;;;;;36.15;4.97;;;;;;;;;;6190510;23;20062;-93
2022/01/16 23:54:26;;;;;;;47.17;8.80;;;;;;;;;;6189909;23;20091;-93
2022/01/16 23:56:51;;;;;;;33.25;6.60;;;;;;;;;;6189296;23;20342;-92
2022/01/16 23:59:17;;;;;;;37.70;7.88;;;;;;;;;;6190194;23;20364;-93
